X  Close Metar Aviation Weather Data     KBFM Mobile Downtown Airport
Temperature
81°F Temperature
75°F Dewpoint
84% Humidity



Wind
15 MPH
24 KM/H
7 M/S
13 KTS



140°
SE
Current Conditions

Partly Cloudy Partly Cloudy
Pressure 1014.22 (hPa) - 29.95 (inHg)
Visibility 10 (mile) - 16.1 (km)
Airport
Airport-code KBFM

Location: Mobile Downtown Airport
Distance: 8 (mi)

Metar:
KBFM 250053Z 14013KT 10SM FEW017 SCT021 27/24 A2995 RMK AO2 LTG DSNT W AND NW SLP140 T02720239

Time: 24-05-2022 7:53 pm CDT